createdAt,value
2022-10-07T14:13:58.356Z,67.50
2022-10-07T14:14:58.228Z,61.88
2022-10-07T14:15:58.204Z,67.50
2022-10-07T14:16:58.236Z,90.00
2022-10-07T14:17:58.181Z,90.00
2022-10-07T14:18:58.201Z,90.00
2022-10-07T14:19:58.167Z,84.38
2022-10-07T14:20:58.145Z,73.12
2022-10-07T14:21:58.136Z,73.12
2022-10-07T14:22:58.320Z,90.00
2022-10-07T14:23:58.180Z,56.25
2022-10-07T14:24:58.243Z,56.25
2022-10-07T14:25:58.124Z,45.00
2022-10-07T14:26:58.082Z,50.62
2022-10-07T14:28:05.738Z,45.00
2022-10-07T14:28:58.066Z,45.00
2022-10-07T14:29:58.095Z,45.00
2022-10-07T14:30:58.115Z,45.00
2022-10-07T14:31:58.022Z,45.00
2022-10-07T14:32:58.050Z,45.00
2022-10-07T14:34:00.377Z,39.38
2022-10-07T14:34:57.990Z,45.00
2022-10-07T14:35:57.976Z,45.00
2022-10-07T14:36:58.006Z,39.38
2022-10-07T14:37:57.953Z,45.00
2022-10-07T14:38:57.950Z,45.00
2022-10-07T14:39:57.978Z,45.00
2022-10-07T14:40:57.920Z,39.38
2022-10-07T14:41:57.905Z,39.38
2022-10-07T14:42:57.901Z,39.38
2022-10-07T14:43:57.896Z,39.38
2022-10-07T14:44:57.908Z,39.38
2022-10-07T14:45:57.962Z,39.38
2022-10-07T14:46:57.867Z,39.38
2022-10-07T14:47:57.877Z,39.38
2022-10-07T14:48:57.824Z,39.38
2022-10-07T14:49:57.842Z,39.38
2022-10-07T14:50:57.821Z,39.38
2022-10-07T14:51:57.794Z,50.62
2022-10-07T14:52:57.785Z,45.00
2022-10-07T14:53:57.769Z,50.62
2022-10-07T14:54:57.778Z,45.00
2022-10-07T14:55:57.748Z,39.38
2022-10-07T14:56:57.738Z,39.38
2022-10-07T14:57:57.921Z,50.62
2022-10-07T14:58:57.885Z,61.88
2022-10-07T14:59:57.792Z,61.88
2022-10-07T15:00:57.694Z,61.88
2022-10-07T15:01:57.758Z,67.50
2022-10-07T15:02:57.736Z,39.38
2022-10-07T15:03:57.854Z,50.62
2022-10-07T15:04:57.714Z,39.38
2022-10-07T15:05:57.648Z,39.38
2022-10-07T15:06:57.626Z,39.38
2022-10-07T15:07:57.637Z,39.38
2022-10-07T15:08:57.690Z,33.75
2022-10-07T15:09:57.694Z,28.12
2022-10-07T15:10:57.602Z,28.12
2022-10-07T15:11:57.584Z,28.12
2022-10-07T15:12:58.073Z,28.12
2022-10-07T15:13:57.759Z,22.50
2022-10-07T15:14:57.552Z,22.50
2022-10-07T15:15:57.539Z,22.50
2022-10-07T15:16:57.609Z,22.50
2022-10-07T15:17:57.526Z,16.88
2022-10-07T15:18:57.486Z,16.88
2022-10-07T15:19:57.556Z,16.88
2022-10-07T15:20:57.491Z,16.88
2022-10-07T15:21:57.453Z,16.88
2022-10-07T15:22:57.465Z,16.88
2022-10-07T15:23:57.433Z,16.88
2022-10-07T15:24:57.439Z,11.25
2022-10-07T15:25:57.461Z,11.25
2022-10-07T15:26:57.395Z,11.25
2022-10-07T15:27:57.384Z,11.25
2022-10-07T15:28:57.379Z,11.25
2022-10-07T15:29:57.405Z,11.25
2022-10-07T15:30:57.385Z,11.25
2022-10-07T15:31:57.363Z,11.25
2022-10-07T15:32:57.330Z,11.25
2022-10-07T15:33:57.419Z,11.25
2022-10-07T15:34:57.303Z,11.25
2022-10-07T15:35:57.298Z,11.25
2022-10-07T15:36:57.306Z,11.25
2022-10-07T15:37:57.296Z,5.62
2022-10-07T15:38:57.262Z,5.62
2022-10-07T15:39:57.286Z,5.62
2022-10-07T15:40:57.237Z,5.62
2022-10-07T15:41:57.246Z,5.62
2022-10-07T15:42:57.215Z,5.62
2022-10-07T15:43:57.206Z,5.62
2022-10-07T15:44:57.199Z,5.62
2022-10-07T15:45:57.237Z,5.62
2022-10-07T15:46:57.183Z,5.62
2022-10-07T15:48:00.461Z,5.62
2022-10-07T15:48:57.173Z,5.62
2022-10-07T15:49:57.386Z,5.62
2022-10-07T15:50:57.134Z,5.62
2022-10-07T15:51:57.111Z,5.62
2022-10-07T15:52:57.118Z,5.62
2022-10-07T15:53:57.088Z,5.62
2022-10-07T15:54:57.084Z,5.62
2022-10-07T15:55:57.097Z,5.62
2022-10-07T15:56:57.062Z,5.62
2022-10-07T15:57:57.050Z,5.62
2022-10-07T15:58:57.055Z,5.62
2022-10-07T15:59:57.073Z,5.62
2022-10-07T16:00:57.017Z,0.00
2022-10-07T16:01:57.038Z,0.00
2022-10-07T16:02:57.038Z,0.00
2022-10-07T16:03:56.977Z,0.00
2022-10-07T16:04:56.985Z,0.00
2022-10-07T16:05:56.967Z,0.00
2022-10-07T16:06:57.052Z,0.00
2022-10-07T16:07:56.930Z,0.00
2022-10-07T16:08:56.916Z,0.00
2022-10-07T16:09:56.965Z,0.00
2022-10-07T16:10:56.912Z,0.00
2022-10-07T16:11:56.882Z,0.00
2022-10-07T16:12:56.899Z,0.00
2022-10-07T16:13:56.859Z,0.00
2022-10-07T16:14:56.865Z,0.00
2022-10-07T16:15:56.889Z,0.00
2022-10-07T16:16:57.522Z,0.00
2022-10-07T16:17:56.829Z,0.00
2022-10-07T16:18:56.948Z,0.00
2022-10-07T16:19:56.857Z,0.00
2022-10-07T16:20:56.894Z,0.00
2022-10-07T16:21:56.892Z,0.00
2022-10-07T16:22:57.084Z,0.00
2022-10-07T16:23:56.764Z,0.00
2022-10-07T16:24:56.773Z,0.00
2022-10-07T16:25:56.731Z,0.00
2022-10-07T16:26:56.733Z,0.00
2022-10-07T16:27:56.704Z,0.00
2022-10-07T16:28:56.689Z,0.00
2022-10-07T16:29:56.681Z,0.00
2022-10-07T16:30:56.731Z,0.00
2022-10-07T16:31:58.803Z,0.00
2022-10-07T16:32:56.644Z,0.00
2022-10-07T16:33:56.633Z,0.00
2022-10-07T16:34:56.625Z,0.00
2022-10-07T16:35:56.614Z,0.00
2022-10-07T16:36:57.191Z,0.00
2022-10-07T16:37:56.831Z,0.00
2022-10-07T16:38:56.578Z,0.00
2022-10-07T16:39:56.564Z,0.00
2022-10-07T16:40:56.554Z,0.00
2022-10-07T16:41:56.713Z,0.00
2022-10-07T16:42:56.540Z,0.00
2022-10-07T16:43:56.579Z,0.00
2022-10-07T16:44:56.517Z,0.00
2022-10-07T16:46:05.299Z,0.00
2022-10-07T16:46:56.759Z,0.00
2022-10-07T16:47:56.541Z,0.00
2022-10-07T16:48:56.551Z,0.00
2022-10-07T16:49:56.529Z,0.00
2022-10-07T16:50:56.587Z,0.00
2022-10-07T16:51:56.489Z,0.00
2022-10-07T16:52:56.433Z,0.00
2022-10-07T16:53:56.434Z,0.00
2022-10-07T16:54:56.419Z,0.00
2022-10-07T16:55:56.414Z,0.00
2022-10-07T16:56:56.393Z,0.00
2022-10-07T16:57:56.360Z,0.00
2022-10-07T16:58:56.367Z,0.00
2022-10-07T16:59:56.365Z,0.00
2022-10-07T17:01:03.386Z,0.00
2022-10-07T17:01:56.585Z,0.00
2022-10-07T17:02:56.326Z,0.00
2022-10-07T17:03:56.396Z,0.00
2022-10-07T17:04:56.285Z,0.00
2022-10-07T17:05:56.271Z,0.00
2022-10-07T17:06:56.259Z,0.00
2022-10-07T17:07:56.265Z,0.00
2022-10-07T17:08:56.249Z,0.00
2022-10-07T17:09:56.259Z,0.00
2022-10-07T17:10:56.229Z,0.00
2022-10-07T17:11:56.202Z,0.00
2022-10-07T17:12:56.260Z,0.00
2022-10-07T17:13:56.211Z,0.00
2022-10-07T17:14:56.167Z,0.00
2022-10-07T17:15:56.226Z,0.00
2022-10-07T17:16:56.143Z,0.00
2022-10-07T17:17:56.180Z,0.00
2022-10-07T17:18:56.117Z,0.00
2022-10-07T17:19:56.158Z,0.00
2022-10-07T17:20:56.103Z,0.00
2022-10-07T17:21:56.112Z,0.00
2022-10-07T17:22:56.074Z,0.00
2022-10-07T17:23:56.081Z,0.00
2022-10-07T17:24:56.087Z,0.00
2022-10-07T17:25:56.058Z,0.00
2022-10-07T17:26:56.046Z,0.00
2022-10-07T17:27:56.019Z,0.00
2022-10-07T17:28:56.001Z,0.00
2022-10-07T17:29:56.006Z,0.00
2022-10-07T17:30:56.031Z,0.00
2022-10-07T17:31:55.982Z,0.00
2022-10-07T17:32:55.952Z,0.00
2022-10-07T17:33:55.956Z,0.00
2022-10-07T17:34:55.948Z,0.00
2022-10-07T17:35:55.996Z,0.00
2022-10-07T17:36:55.927Z,0.00
2022-10-07T17:37:55.893Z,0.00
2022-10-07T17:38:55.903Z,0.00
2022-10-07T17:39:55.879Z,0.00
2022-10-07T17:40:55.857Z,0.00
2022-10-07T17:41:55.876Z,0.00
2022-10-07T17:42:55.838Z,0.00
2022-10-07T17:43:55.980Z,0.00
2022-10-07T17:44:55.842Z,0.00
2022-10-07T17:45:55.807Z,0.00
2022-10-07T17:46:55.888Z,0.00
2022-10-07T17:47:55.775Z,0.00
2022-10-07T17:48:55.770Z,0.00
2022-10-07T17:49:55.760Z,0.00
2022-10-07T17:50:55.739Z,0.00
2022-10-07T17:51:56.127Z,0.00
2022-10-07T17:52:55.713Z,0.00
2022-10-07T17:53:55.709Z,0.00
2022-10-07T17:54:55.741Z,0.00
2022-10-07T17:55:55.682Z,0.00
2022-10-07T17:56:55.689Z,0.00
2022-10-07T17:57:55.676Z,0.00
2022-10-07T17:58:55.647Z,0.00
2022-10-07T17:59:55.651Z,0.00
2022-10-07T18:00:55.680Z,0.00
2022-10-07T18:01:55.643Z,0.00
2022-10-07T18:02:55.595Z,0.00
2022-10-07T18:03:55.583Z,0.00
2022-10-07T18:04:55.621Z,0.00
2022-10-07T18:05:55.579Z,0.00
2022-10-07T18:06:55.580Z,0.00
2022-10-07T18:07:55.545Z,0.00
2022-10-07T18:08:55.522Z,0.00
2022-10-07T18:09:55.531Z,0.00
2022-10-07T18:10:55.499Z,0.00
2022-10-07T18:11:55.487Z,0.00
2022-10-07T18:12:55.512Z,0.00
2022-10-07T18:13:55.480Z,0.00
2022-10-07T18:14:55.467Z,0.00
2022-10-07T18:15:55.539Z,0.00
2022-10-07T18:16:55.439Z,0.00
2022-10-07T18:17:55.435Z,0.00
2022-10-07T18:18:55.435Z,0.00
2022-10-07T18:19:55.424Z,0.00
2022-10-07T18:20:55.382Z,0.00
2022-10-07T18:21:55.379Z,0.00
2022-10-07T18:22:55.410Z,0.00
2022-10-07T18:23:55.356Z,0.00
2022-10-07T18:24:55.346Z,0.00
2022-10-07T18:25:59.224Z,0.00
2022-10-07T18:26:56.344Z,0.00
2022-10-07T18:27:55.392Z,0.00
2022-10-07T18:28:55.296Z,0.00
2022-10-07T18:29:55.315Z,0.00
2022-10-07T18:30:55.276Z,0.00
2022-10-07T18:31:55.420Z,0.00
2022-10-07T18:32:55.252Z,0.00
2022-10-07T18:33:55.257Z,0.00
2022-10-07T18:34:55.252Z,0.00
2022-10-07T18:35:55.227Z,0.00
2022-10-07T18:36:56.914Z,0.00
2022-10-07T18:37:55.200Z,0.00
2022-10-07T18:38:55.184Z,0.00
2022-10-07T18:39:55.226Z,0.00
2022-10-07T18:40:55.171Z,0.00
2022-10-07T18:41:55.150Z,0.00
2022-10-07T18:42:55.159Z,0.00
2022-10-07T18:43:55.131Z,0.00
2022-10-07T18:44:55.136Z,0.00
2022-10-07T18:45:55.199Z,0.00
2022-10-07T18:46:55.109Z,0.00
2022-10-07T18:47:55.083Z,0.00
2022-10-07T18:48:55.071Z,0.00
2022-10-07T18:49:55.074Z,0.00
2022-10-07T18:50:55.046Z,0.00
2022-10-07T18:51:55.062Z,0.00
2022-10-07T18:52:55.035Z,0.00
2022-10-07T18:53:55.017Z,0.00
2022-10-07T18:54:55.023Z,0.00
2022-10-07T18:55:54.992Z,0.00
2022-10-07T18:56:54.996Z,0.00
2022-10-07T18:57:54.982Z,0.00
2022-10-07T18:58:55.001Z,0.00
2022-10-07T18:59:54.964Z,0.00
2022-10-07T19:00:55.117Z,0.00
2022-10-07T19:01:55.101Z,0.00
2022-10-07T19:02:54.906Z,0.00
2022-10-07T19:03:54.911Z,0.00
2022-10-07T19:04:54.897Z,0.00
2022-10-07T19:05:54.894Z,0.00
2022-10-07T19:06:54.862Z,0.00
2022-10-07T19:07:54.849Z,0.00
2022-10-07T19:08:54.859Z,0.00
2022-10-07T19:09:54.838Z,0.00
2022-10-07T19:10:54.815Z,0.00
2022-10-07T19:11:54.851Z,0.00
2022-10-07T19:12:54.792Z,0.00
2022-10-07T19:13:54.801Z,0.00
2022-10-07T19:14:54.782Z,0.00
2022-10-07T19:15:54.809Z,0.00
2022-10-07T19:16:55.575Z,0.00
2022-10-07T19:17:54.753Z,0.00
2022-10-07T19:19:02.465Z,0.00
2022-10-07T19:19:54.930Z,0.00
2022-10-07T19:20:54.773Z,0.00
2022-10-07T19:21:54.700Z,0.00
2022-10-07T19:22:54.711Z,0.00
2022-10-07T19:23:54.786Z,0.00
2022-10-07T19:24:54.725Z,0.00
2022-10-07T19:25:54.661Z,0.00
2022-10-07T19:26:54.658Z,0.00
2022-10-07T19:27:54.622Z,0.00
2022-10-07T19:28:54.637Z,0.00
2022-10-07T19:29:54.688Z,0.00
2022-10-07T19:30:54.592Z,0.00
2022-10-07T19:31:54.654Z,0.00
2022-10-07T19:32:54.609Z,0.00
2022-10-07T19:33:54.595Z,0.00
2022-10-07T19:34:54.550Z,0.00
2022-10-07T19:35:54.554Z,0.00
2022-10-07T19:36:54.514Z,0.00
2022-10-07T19:37:54.520Z,0.00
2022-10-07T19:38:54.508Z,0.00
2022-10-07T19:39:54.541Z,0.00
2022-10-07T19:40:54.487Z,0.00
2022-10-07T19:41:54.474Z,0.00
2022-10-07T19:42:54.472Z,0.00
2022-10-07T19:43:54.439Z,0.00
2022-10-07T19:44:54.444Z,0.00
2022-10-07T19:45:54.505Z,0.00
2022-10-07T19:46:54.429Z,0.00
2022-10-07T19:47:54.406Z,0.00
2022-10-07T19:48:54.392Z,0.00
2022-10-07T19:49:54.399Z,0.00
2022-10-07T19:50:54.359Z,0.00
2022-10-07T19:51:54.387Z,0.00
2022-10-07T19:52:54.348Z,0.00
2022-10-07T19:53:54.328Z,0.00
2022-10-07T19:54:54.302Z,0.00
2022-10-07T19:55:54.351Z,0.00
2022-10-07T19:56:54.297Z,0.00
2022-10-07T19:57:54.276Z,0.00
2022-10-07T19:58:54.267Z,0.00
2022-10-07T19:59:54.276Z,0.00
2022-10-07T20:00:54.277Z,0.00
2022-10-07T20:01:57.667Z,0.00
2022-10-07T20:02:56.275Z,0.00
2022-10-07T20:03:54.264Z,0.00
2022-10-07T20:04:54.197Z,0.00
2022-10-07T20:05:54.203Z,0.00
2022-10-07T20:06:54.188Z,0.00
2022-10-07T20:07:54.201Z,0.00
2022-10-07T20:08:54.180Z,0.00
2022-10-07T20:09:54.153Z,0.00
2022-10-07T20:10:54.136Z,0.00
2022-10-07T20:11:54.177Z,0.00
2022-10-07T20:12:54.105Z,0.00
2022-10-07T20:13:54.092Z,0.00
2022-10-07T20:14:54.104Z,0.00
2022-10-07T20:15:54.069Z,0.00
2022-10-07T20:16:54.075Z,0.00
2022-10-07T20:17:54.045Z,0.00
2022-10-07T20:18:54.074Z,0.00
2022-10-07T20:19:54.053Z,0.00
2022-10-07T20:20:54.110Z,0.00
2022-10-07T20:21:54.054Z,0.00
2022-10-07T20:22:54.020Z,0.00
2022-10-07T20:23:53.993Z,0.00
2022-10-07T20:24:53.984Z,0.00
2022-10-07T20:25:53.953Z,0.00
2022-10-07T20:26:53.961Z,0.00
2022-10-07T20:27:53.931Z,0.00
2022-10-07T20:28:53.926Z,0.00
2022-10-07T20:29:53.905Z,0.00
2022-10-07T20:30:53.911Z,0.00
2022-10-07T20:31:54.062Z,0.00
2022-10-07T20:32:53.885Z,0.00
2022-10-07T20:33:53.859Z,0.00
2022-10-07T20:34:54.559Z,0.00
2022-10-07T20:35:53.853Z,0.00
2022-10-07T20:36:53.845Z,0.00
2022-10-07T20:37:53.843Z,0.00
2022-10-07T20:38:53.813Z,0.00
2022-10-07T20:39:53.841Z,0.00
2022-10-07T20:40:53.806Z,0.00
2022-10-07T20:41:53.766Z,0.00
2022-10-07T20:42:54.084Z,0.00
2022-10-07T20:43:53.750Z,0.00
2022-10-07T20:44:53.893Z,0.00
2022-10-07T20:45:53.865Z,0.00
2022-10-07T20:46:53.707Z,0.00
2022-10-07T20:47:53.869Z,0.00
2022-10-07T20:48:53.726Z,0.00
2022-10-07T20:49:55.029Z,0.00
2022-10-07T20:50:53.712Z,0.00
2022-10-07T20:51:53.671Z,0.00
2022-10-07T20:52:53.643Z,0.00
2022-10-07T20:53:53.646Z,0.00
2022-10-07T20:54:53.646Z,0.00
2022-10-07T20:55:53.622Z,0.00
2022-10-07T20:56:53.597Z,0.00
2022-10-07T20:57:53.581Z,0.00
2022-10-07T20:58:53.589Z,0.00
2022-10-07T20:59:53.593Z,0.00
2022-10-07T21:00:53.609Z,0.00
2022-10-07T21:01:53.598Z,0.00
2022-10-07T21:02:53.699Z,0.00
2022-10-07T21:03:53.527Z,0.00
2022-10-07T21:04:53.533Z,0.00
2022-10-07T21:05:53.516Z,0.00
2022-10-07T21:06:53.490Z,0.00
2022-10-07T21:07:54.844Z,0.00
2022-10-07T21:08:53.464Z,0.00
2022-10-07T21:09:53.472Z,0.00
2022-10-07T21:10:53.434Z,0.00
2022-10-07T21:11:53.424Z,0.00
2022-10-07T21:12:53.446Z,0.00
2022-10-07T21:13:53.409Z,0.00
2022-10-07T21:14:53.432Z,0.00
2022-10-07T21:15:53.386Z,0.00
2022-10-07T21:16:53.540Z,0.00
2022-10-07T21:17:53.358Z,0.00
2022-10-07T21:18:53.353Z,0.00
2022-10-07T21:19:53.350Z,0.00
2022-10-07T21:20:56.837Z,0.00
2022-10-07T21:21:53.314Z,0.00
2022-10-07T21:22:53.296Z,0.00
2022-10-07T21:23:53.317Z,0.00
2022-10-07T21:24:53.307Z,0.00
2022-10-07T21:25:53.289Z,0.00
2022-10-07T21:26:53.256Z,0.00
2022-10-07T21:27:53.239Z,0.00
2022-10-07T21:28:53.235Z,0.00
2022-10-07T21:29:53.267Z,0.00
2022-10-07T21:30:53.234Z,0.00
2022-10-07T21:31:53.207Z,0.00
2022-10-07T21:32:53.180Z,0.00
2022-10-07T21:33:53.175Z,0.00
2022-10-07T21:34:53.174Z,0.00
2022-10-07T21:35:53.175Z,0.00
2022-10-07T21:36:54.060Z,0.00
2022-10-07T21:37:53.127Z,0.00
2022-10-07T21:38:53.112Z,0.00
2022-10-07T21:39:53.110Z,0.00
2022-10-07T21:40:53.126Z,0.00
2022-10-07T21:41:53.094Z,0.00
2022-10-07T21:42:53.068Z,0.00
2022-10-07T21:43:53.061Z,0.00
2022-10-07T21:44:53.049Z,0.00
2022-10-07T21:45:53.109Z,0.00
2022-10-07T21:46:53.065Z,0.00
2022-10-07T21:47:53.055Z,0.00
2022-10-07T21:48:52.996Z,0.00
2022-10-07T21:49:52.988Z,0.00
2022-10-07T21:50:52.978Z,0.00
2022-10-07T21:51:52.991Z,0.00
2022-10-07T21:52:52.984Z,0.00
2022-10-07T21:53:52.944Z,0.00
2022-10-07T21:54:52.947Z,0.00
2022-10-07T21:55:52.916Z,0.00
2022-10-07T21:56:52.928Z,0.00
2022-10-07T21:57:52.927Z,0.00
2022-10-07T21:58:52.882Z,0.00
2022-10-07T21:59:52.873Z,0.00
2022-10-07T22:00:52.867Z,0.00
2022-10-07T22:01:52.929Z,0.00
2022-10-07T22:02:52.914Z,0.00
2022-10-07T22:03:52.854Z,0.00
2022-10-07T22:04:52.896Z,0.00
2022-10-07T22:05:52.805Z,0.00
2022-10-07T22:06:52.788Z,0.00
2022-10-07T22:07:52.803Z,0.00
2022-10-07T22:08:56.213Z,0.00
2022-10-07T22:09:52.759Z,0.00
2022-10-07T22:10:52.758Z,0.00
2022-10-07T22:11:52.743Z,0.00
2022-10-07T22:12:52.728Z,0.00
2022-10-07T22:13:52.744Z,0.00
2022-10-07T22:14:52.741Z,0.00
2022-10-07T22:15:52.794Z,0.00
2022-10-07T22:16:52.717Z,0.00
2022-10-07T22:17:52.693Z,0.00
2022-10-07T22:18:52.677Z,0.00
2022-10-07T22:19:52.676Z,0.00
2022-10-07T22:20:52.661Z,0.00
2022-10-07T22:21:52.618Z,0.00
2022-10-07T22:22:56.607Z,0.00
2022-10-07T22:23:53.634Z,0.00
2022-10-07T22:24:52.588Z,0.00
2022-10-07T22:25:52.575Z,0.00
2022-10-07T22:26:55.107Z,0.00
2022-10-07T22:27:52.554Z,0.00
2022-10-07T22:28:52.574Z,0.00
2022-10-07T22:29:52.553Z,0.00
2022-10-07T22:30:52.567Z,0.00
2022-10-07T22:31:52.523Z,0.00
2022-10-07T22:32:52.496Z,0.00
2022-10-07T22:33:52.507Z,0.00
2022-10-07T22:34:52.497Z,0.00
2022-10-07T22:35:52.465Z,0.00
2022-10-07T22:36:52.480Z,0.00
2022-10-07T22:37:52.439Z,0.00
2022-10-07T22:38:52.443Z,0.00
2022-10-07T22:39:52.514Z,0.00
2022-10-07T22:40:52.416Z,0.00
2022-10-07T22:41:52.403Z,0.00
2022-10-07T22:42:52.386Z,0.00
2022-10-07T22:43:52.387Z,0.00
2022-10-07T22:44:52.379Z,0.00
2022-10-07T22:45:52.429Z,0.00
2022-10-07T22:46:52.371Z,0.00
2022-10-07T22:47:52.333Z,0.00
2022-10-07T22:48:52.312Z,0.00
2022-10-07T22:49:52.320Z,0.00
2022-10-07T22:50:52.292Z,0.00
2022-10-07T22:51:52.276Z,0.00
2022-10-07T22:52:52.291Z,0.00
2022-10-07T22:53:52.257Z,0.00
2022-10-07T22:54:52.265Z,0.00
2022-10-07T22:55:52.256Z,0.00
2022-10-07T22:56:52.226Z,0.00
2022-10-07T22:57:52.207Z,0.00
2022-10-07T22:58:52.219Z,0.00
2022-10-07T22:59:52.187Z,0.00
2022-10-07T23:00:52.190Z,0.00
2022-10-07T23:01:52.175Z,0.00
2022-10-07T23:02:52.496Z,0.00
2022-10-07T23:03:52.277Z,0.00
2022-10-07T23:04:52.130Z,0.00
2022-10-07T23:05:52.135Z,0.00
2022-10-07T23:06:52.127Z,0.00
2022-10-07T23:07:52.102Z,0.00
2022-10-07T23:08:52.084Z,0.00
2022-10-07T23:09:52.099Z,0.00
2022-10-07T23:10:52.065Z,0.00
2022-10-07T23:11:52.091Z,0.00
2022-10-07T23:12:52.045Z,0.00
2022-10-07T23:13:52.052Z,0.00
2022-10-07T23:14:52.019Z,0.00
2022-10-07T23:15:52.070Z,0.00
2022-10-07T23:16:51.992Z,0.00
2022-10-07T23:17:52.010Z,0.00
2022-10-07T23:18:51.967Z,0.00
2022-10-07T23:19:51.954Z,0.00
2022-10-07T23:20:51.949Z,0.00
2022-10-07T23:21:51.972Z,0.00
2022-10-07T23:22:51.944Z,0.00
2022-10-07T23:23:51.915Z,0.00
2022-10-07T23:24:51.912Z,0.00
2022-10-07T23:25:51.895Z,0.00
2022-10-07T23:26:51.886Z,0.00
2022-10-07T23:27:51.915Z,0.00
2022-10-07T23:28:51.856Z,0.00
2022-10-07T23:29:51.844Z,0.00
2022-10-07T23:30:51.878Z,0.00
2022-10-07T23:31:51.840Z,0.00
2022-10-07T23:32:51.821Z,0.00
2022-10-07T23:33:51.818Z,0.00
2022-10-07T23:34:51.787Z,0.00
2022-10-07T23:35:51.773Z,0.00
2022-10-07T23:36:51.762Z,0.00
2022-10-07T23:37:51.777Z,0.00
2022-10-07T23:38:51.767Z,0.00
2022-10-07T23:39:51.734Z,0.00
2022-10-07T23:40:51.739Z,0.00
2022-10-07T23:41:51.707Z,0.00
2022-10-07T23:42:51.713Z,0.00
2022-10-07T23:43:51.692Z,0.00
2022-10-07T23:44:51.699Z,0.00
2022-10-07T23:45:51.657Z,0.00
2022-10-07T23:46:51.808Z,0.00
2022-10-07T23:47:51.643Z,0.00
2022-10-07T23:48:51.647Z,0.00
2022-10-07T23:49:51.633Z,0.00
2022-10-07T23:50:51.610Z,0.00
2022-10-07T23:51:51.609Z,0.00
2022-10-07T23:52:51.583Z,0.00
2022-10-07T23:53:51.590Z,0.00
2022-10-07T23:54:51.564Z,0.00
2022-10-07T23:55:51.544Z,0.00
2022-10-07T23:56:51.536Z,0.00
2022-10-07T23:57:51.535Z,0.00
2022-10-07T23:58:51.536Z,0.00
2022-10-07T23:59:51.632Z,0.00
